createdAt,value
2022-07-30T00:01:35.838Z,8.40
2022-07-30T00:04:04.943Z,11.88
2022-07-30T00:06:33.725Z,10.50
2022-07-30T00:09:01.981Z,10.27
2022-07-30T00:11:31.770Z,10.23
2022-07-30T00:14:00.112Z,10.75
2022-07-30T00:16:29.087Z,10.30
2022-07-30T00:18:57.412Z,9.57
2022-07-30T00:21:38.578Z,11.65
2022-07-30T00:24:08.764Z,8.95
2022-07-30T00:26:38.672Z,11.32
2022-07-30T00:29:07.616Z,8.07
2022-07-30T00:31:35.896Z,9.98
2022-07-30T00:34:04.203Z,9.13
2022-07-30T00:36:32.816Z,10.75
2022-07-30T00:39:01.089Z,8.75
2022-07-30T00:41:30.353Z,8.77
2022-07-30T00:44:00.046Z,10.48
2022-07-30T00:46:28.364Z,11.15
2022-07-30T00:48:56.701Z,9.70
2022-07-30T00:51:24.994Z,10.70
2022-07-30T00:53:53.878Z,12.38
2022-07-30T00:56:22.158Z,8.50
2022-07-30T00:58:50.504Z,10.20
2022-07-30T01:01:21.105Z,11.05
2022-07-30T01:03:49.489Z,11.25
2022-07-30T01:06:17.849Z,10.60
2022-07-30T01:08:46.127Z,9.07
2022-07-30T01:11:14.503Z,9.82
2022-07-30T01:13:44.324Z,9.25
2022-07-30T01:16:13.111Z,9.55
2022-07-30T01:19:01.442Z,11.73
2022-07-30T01:21:36.278Z,12.88
2022-07-30T01:24:13.425Z,14.95
2022-07-30T01:26:43.725Z,10.40
2022-07-30T01:29:14.486Z,11.65
2022-07-30T01:31:44.959Z,10.98
2022-07-30T01:34:15.928Z,11.68
2022-07-30T01:36:47.602Z,12.02
2022-07-30T01:39:16.480Z,9.68
2022-07-30T01:41:47.883Z,9.90
2022-07-30T01:44:23.942Z,11.27
2022-07-30T01:46:54.502Z,11.55
2022-07-30T01:49:24.195Z,12.55
2022-07-30T01:51:54.871Z,12.00
2022-07-30T01:54:28.604Z,12.52
2022-07-30T01:57:02.064Z,13.27
2022-07-30T01:59:33.040Z,11.50
2022-07-30T02:02:01.741Z,11.27
2022-07-30T02:04:30.954Z,10.90
2022-07-30T02:07:04.554Z,11.45
2022-07-30T02:09:45.588Z,9.95
2022-07-30T02:12:31.612Z,10.98
2022-07-30T02:15:15.483Z,9.02
2022-07-30T02:17:47.477Z,11.50
2022-07-30T02:20:18.684Z,13.77
2022-07-30T02:22:48.397Z,10.05
2022-07-30T02:25:22.379Z,9.95
2022-07-30T02:27:57.156Z,11.30
2022-07-30T02:30:28.818Z,10.75
2022-07-30T02:33:03.333Z,11.80
2022-07-30T02:35:33.073Z,12.55
2022-07-30T02:38:03.674Z,11.38
2022-07-30T02:40:32.944Z,10.38
2022-07-30T02:43:03.843Z,9.23
2022-07-30T02:45:32.547Z,10.15
2022-07-30T02:48:07.068Z,14.13
2022-07-30T02:50:36.230Z,10.23
2022-07-30T02:53:08.491Z,13.95
2022-07-30T02:55:39.312Z,11.90
2022-07-30T02:58:10.174Z,13.88
2022-07-30T03:00:39.887Z,14.15
2022-07-30T03:03:09.817Z,13.40
2022-07-30T03:05:40.730Z,13.73
2022-07-30T03:08:09.942Z,13.95
2022-07-30T03:10:39.662Z,15.70
2022-07-30T03:13:11.694Z,12.18
2022-07-30T03:15:45.346Z,16.50
2022-07-30T03:18:15.636Z,14.05
2022-07-30T03:20:47.120Z,13.98
2022-07-30T03:23:20.003Z,17.30
2022-07-30T03:25:52.476Z,15.70
2022-07-30T03:28:25.238Z,14.50
2022-07-30T03:30:54.700Z,16.02
2022-07-30T03:33:24.332Z,15.25
2022-07-30T03:36:08.173Z,14.63
2022-07-30T03:38:39.339Z,17.55
2022-07-30T03:41:09.382Z,15.48
2022-07-30T03:43:40.615Z,17.40
2022-07-30T03:46:11.795Z,16.70
2022-07-30T03:48:43.936Z,18.00
2022-07-30T03:51:13.097Z,18.73
2022-07-30T03:53:43.708Z,17.23
2022-07-30T03:56:30.286Z,16.83
2022-07-30T03:59:29.424Z,17.40
2022-07-30T04:02:03.949Z,17.60
2022-07-30T04:05:09.008Z,17.70
2022-07-30T04:07:41.359Z,20.42
2022-07-30T04:10:14.704Z,18.95
2022-07-30T04:13:01.362Z,19.52
2022-07-30T04:16:40.438Z,19.77
2022-07-30T04:18:36.071Z,18.60
2022-07-30T04:21:06.940Z,18.80
2022-07-30T04:24:03.799Z,18.55
2022-07-30T04:26:36.514Z,16.15
2022-07-30T04:29:07.832Z,21.00
2022-07-30T04:31:39.855Z,16.90
2022-07-30T04:34:28.052Z,18.00
2022-07-30T04:36:56.444Z,20.95
2022-07-30T04:39:24.893Z,19.65
2022-07-30T04:41:53.287Z,19.10
2022-07-30T04:44:29.141Z,16.40
2022-07-30T04:47:22.089Z,17.45
2022-07-30T04:50:14.656Z,15.15
2022-07-30T04:52:44.939Z,18.05
2022-07-30T04:55:17.945Z,18.13
2022-07-30T04:57:50.475Z,17.23
2022-07-30T05:00:19.344Z,15.80
2022-07-30T05:02:51.819Z,19.58
2022-07-30T05:05:23.935Z,17.75
2022-07-30T05:07:53.572Z,15.30
2022-07-30T05:10:22.839Z,19.25
2022-07-30T05:12:51.274Z,16.13
2022-07-30T05:15:22.144Z,14.05
2022-07-30T05:18:07.677Z,18.65
2022-07-30T05:20:40.420Z,15.93
2022-07-30T05:23:15.249Z,16.25
2022-07-30T05:25:49.019Z,18.75
2022-07-30T05:28:26.723Z,17.38
2022-07-30T05:30:57.289Z,15.48
2022-07-30T05:33:41.053Z,15.68
2022-07-30T05:36:12.472Z,17.13
2022-07-30T05:38:41.897Z,16.63
2022-07-30T05:41:32.103Z,15.45
2022-07-30T05:44:11.708Z,16.67
2022-07-30T05:46:42.087Z,16.85
2022-07-30T05:49:12.457Z,17.27
2022-07-30T05:51:41.463Z,17.58
2022-07-30T05:54:10.409Z,17.08
2022-07-30T05:57:01.723Z,17.38
2022-07-30T05:59:35.576Z,16.92
2022-07-30T06:02:09.969Z,16.40
2022-07-30T06:04:56.634Z,18.15
2022-07-30T06:07:25.469Z,17.50
2022-07-30T06:10:02.567Z,17.55
2022-07-30T06:12:31.725Z,18.38
2022-07-30T06:15:00.533Z,17.25
2022-07-30T06:17:42.048Z,16.30
2022-07-30T06:20:39.958Z,18.48
2022-07-30T06:23:16.173Z,16.02
2022-07-30T06:26:16.662Z,16.58
2022-07-30T06:28:45.529Z,18.08
2022-07-30T06:31:21.725Z,17.50
2022-07-30T06:33:50.148Z,14.48
2022-07-30T06:36:19.892Z,15.15
2022-07-30T06:38:58.972Z,15.27
2022-07-30T06:41:41.439Z,16.83
2022-07-30T06:44:15.213Z,13.88
2022-07-30T06:47:07.489Z,13.02
2022-07-30T06:49:38.704Z,12.60
2022-07-30T06:52:15.613Z,10.90
2022-07-30T06:54:49.874Z,10.65
2022-07-30T06:57:27.971Z,13.20
2022-07-30T06:59:59.456Z,12.40
2022-07-30T07:02:37.231Z,11.27
2022-07-30T07:05:12.185Z,8.55
2022-07-30T07:07:57.875Z,9.13
2022-07-30T07:10:30.361Z,7.38
2022-07-30T07:13:11.647Z,10.63
2022-07-30T07:15:40.367Z,9.35
2022-07-30T07:18:13.084Z,9.93
2022-07-30T07:20:46.700Z,6.45
2022-07-30T07:23:19.745Z,7.53
2022-07-30T07:25:49.431Z,10.98
2022-07-30T07:28:18.195Z,7.63
2022-07-30T07:30:46.838Z,14.15
2022-07-30T07:33:16.447Z,8.07
2022-07-30T07:35:48.663Z,12.25
2022-07-30T07:38:25.072Z,11.23
2022-07-30T07:40:55.434Z,7.00
2022-07-30T07:43:25.265Z,6.57
2022-07-30T07:45:57.789Z,7.32
2022-07-30T07:48:29.256Z,3.97
2022-07-30T07:51:09.608Z,4.80
2022-07-30T07:53:40.173Z,4.95
2022-07-30T07:56:09.051Z,5.47
2022-07-30T07:58:38.289Z,4.63
2022-07-30T08:01:10.434Z,4.55
2022-07-30T08:03:58.668Z,6.32
2022-07-30T08:06:45.606Z,5.10
2022-07-30T08:09:40.913Z,4.28
2022-07-30T08:12:39.119Z,4.32
2022-07-30T08:15:25.896Z,4.30
2022-07-30T08:17:54.731Z,4.13
2022-07-30T08:20:58.523Z,3.75
2022-07-30T08:23:32.648Z,3.10
2022-07-30T08:26:02.813Z,4.05
2022-07-30T08:28:35.903Z,2.47
2022-07-30T08:31:06.095Z,2.95
2022-07-30T08:33:34.755Z,3.20
2022-07-30T08:36:09.655Z,3.85
2022-07-30T08:38:39.524Z,7.55
2022-07-30T08:41:10.819Z,4.15
2022-07-30T08:43:39.470Z,3.88
2022-07-30T08:46:12.084Z,5.15
2022-07-30T08:51:19.064Z,2.00
2022-07-30T08:54:16.305Z,4.13
2022-07-30T08:56:49.535Z,3.53
2022-07-30T08:59:18.916Z,2.45
2022-07-30T09:01:47.205Z,3.05
2022-07-30T09:04:15.529Z,2.45
2022-07-30T09:06:43.848Z,2.22
2022-07-30T09:09:12.359Z,4.38
2022-07-30T09:11:42.484Z,2.70
2022-07-30T09:14:14.216Z,2.05
2022-07-30T09:16:45.565Z,2.70
2022-07-30T09:19:16.599Z,4.47
2022-07-30T09:21:56.998Z,2.70
2022-07-30T09:24:43.101Z,4.57
2022-07-30T09:27:47.910Z,2.55
2022-07-30T09:30:56.928Z,2.70
2022-07-30T09:33:47.332Z,6.85
2022-07-30T09:36:38.351Z,3.92
2022-07-30T09:39:59.286Z,2.67
2022-07-30T09:43:04.306Z,4.13
2022-07-30T09:45:34.782Z,2.97
2022-07-30T09:48:22.322Z,3.58
2022-07-30T09:50:51.573Z,2.63
2022-07-30T09:53:22.446Z,3.38
2022-07-30T09:55:52.325Z,3.63
2022-07-30T09:58:27.062Z,4.80
2022-07-30T10:00:59.982Z,4.50
2022-07-30T10:03:49.738Z,3.58
2022-07-30T10:06:34.580Z,3.53
2022-07-30T10:09:14.365Z,3.05
2022-07-30T10:11:48.525Z,3.35
2022-07-30T10:14:18.131Z,3.15
2022-07-30T10:17:00.575Z,5.70
2022-07-30T10:19:39.944Z,4.55
2022-07-30T10:22:29.422Z,3.85
2022-07-30T10:25:20.854Z,3.30
2022-07-30T10:28:10.862Z,4.05
2022-07-30T10:30:39.371Z,3.83
2022-07-30T10:33:11.288Z,3.63
2022-07-30T10:35:59.970Z,2.75
2022-07-30T10:38:33.636Z,3.05
2022-07-30T10:41:09.160Z,3.67
2022-07-30T10:44:04.476Z,3.53
2022-07-30T10:46:45.466Z,7.72
2022-07-30T10:49:18.708Z,4.85
2022-07-30T10:51:50.574Z,3.47
2022-07-30T10:54:41.414Z,2.55
2022-07-30T10:57:15.288Z,5.63
2022-07-30T11:00:15.437Z,3.80
2022-07-30T11:03:15.014Z,3.88
2022-07-30T11:05:46.008Z,3.22
2022-07-30T11:08:42.777Z,3.95
2022-07-30T11:12:01.161Z,5.93
2022-07-30T11:14:58.431Z,4.72
2022-07-30T11:18:00.078Z,4.00
2022-07-30T11:20:29.070Z,6.00
2022-07-30T11:23:22.064Z,4.47
2022-07-30T11:25:54.710Z,6.10
2022-07-30T11:28:41.259Z,5.45
2022-07-30T11:31:55.086Z,4.07
2022-07-30T11:34:31.210Z,4.88
2022-07-30T11:37:18.270Z,6.38
2022-07-30T11:40:13.107Z,5.03
2022-07-30T11:42:43.719Z,5.65
2022-07-30T11:45:29.721Z,6.55
2022-07-30T11:48:00.290Z,4.68
2022-07-30T11:50:31.920Z,3.72
2022-07-30T11:53:03.669Z,6.43
2022-07-30T11:55:34.967Z,3.95
2022-07-30T11:58:06.917Z,3.72
2022-07-30T12:00:37.829Z,3.83
2022-07-30T12:03:11.585Z,3.63
2022-07-30T12:05:40.877Z,3.75
2022-07-30T12:08:10.341Z,4.18
2022-07-30T12:11:00.228Z,5.78
2022-07-30T12:13:42.868Z,4.50
2022-07-30T12:16:17.582Z,3.67
2022-07-30T12:18:47.706Z,4.13
2022-07-30T12:21:16.939Z,4.35
2022-07-30T12:23:55.962Z,3.45
2022-07-30T12:26:26.655Z,3.72
2022-07-30T12:28:57.988Z,5.10
2022-07-30T12:31:26.971Z,4.00
2022-07-30T12:33:58.190Z,4.32
2022-07-30T12:36:31.062Z,3.85
2022-07-30T12:39:00.212Z,4.95
2022-07-30T12:41:45.313Z,2.85
2022-07-30T12:44:40.122Z,3.42
2022-07-30T12:47:20.597Z,3.60
2022-07-30T12:49:50.553Z,4.40
2022-07-30T12:52:28.507Z,4.72
2022-07-30T12:55:02.388Z,5.97
2022-07-30T12:57:52.917Z,2.90
2022-07-30T13:00:23.195Z,2.83
2022-07-30T13:02:51.533Z,3.95
2022-07-30T13:05:20.195Z,3.80
2022-07-30T13:07:58.663Z,2.42
2022-07-30T13:10:31.202Z,2.70
2022-07-30T13:13:00.094Z,3.10
2022-07-30T13:15:29.911Z,2.33
2022-07-30T13:17:58.242Z,2.67
2022-07-30T13:20:26.665Z,4.78
2022-07-30T13:22:58.901Z,3.40
2022-07-30T13:25:38.824Z,4.32
2022-07-30T13:28:09.822Z,3.10
2022-07-30T13:30:39.557Z,4.10
2022-07-30T13:33:07.817Z,2.13
2022-07-30T13:35:36.403Z,2.13
2022-07-30T13:38:06.177Z,1.92
2022-07-30T13:40:35.432Z,4.28
2022-07-30T13:43:04.832Z,2.22
2022-07-30T13:45:33.322Z,1.92
2022-07-30T13:48:03.049Z,2.92
2022-07-30T13:50:31.389Z,2.13
2022-07-30T13:53:02.592Z,1.90
2022-07-30T13:55:31.225Z,1.90
2022-07-30T13:57:59.894Z,1.75
2022-07-30T14:00:32.508Z,2.47
2022-07-30T14:03:03.645Z,3.03
2022-07-30T14:05:33.228Z,3.97
2022-07-30T14:08:01.805Z,3.28
2022-07-30T14:10:30.387Z,2.10
2022-07-30T14:13:00.029Z,2.17
2022-07-30T14:15:31.850Z,3.88
2022-07-30T14:18:02.181Z,4.38
2022-07-30T14:20:30.851Z,2.03
2022-07-30T14:22:59.321Z,1.38
2022-07-30T14:25:27.820Z,2.95
2022-07-30T14:27:56.179Z,2.00
2022-07-30T14:30:25.143Z,1.70
2022-07-30T14:32:59.311Z,5.03
2022-07-30T14:35:31.532Z,2.72
2022-07-30T14:38:00.167Z,3.75
2022-07-30T14:40:28.692Z,1.45
2022-07-30T14:42:57.247Z,1.95
2022-07-30T14:45:26.867Z,3.35
2022-07-30T14:47:57.451Z,1.98
2022-07-30T14:50:25.782Z,2.53
2022-07-30T14:52:55.452Z,3.40
2022-07-30T14:55:23.957Z,2.40
2022-07-30T14:57:52.271Z,3.85
2022-07-30T15:00:21.321Z,2.72
2022-07-30T15:02:52.683Z,2.85
2022-07-30T15:05:21.009Z,2.92
2022-07-30T15:07:49.325Z,3.33
2022-07-30T15:10:19.383Z,3.55
2022-07-30T15:12:47.751Z,2.33
2022-07-30T15:15:16.478Z,2.35
2022-07-30T15:17:46.090Z,2.63
2022-07-30T15:20:14.424Z,2.35
2022-07-30T15:22:42.795Z,2.83
2022-07-30T15:25:11.055Z,3.00
2022-07-30T15:27:40.670Z,1.77
2022-07-30T15:30:09.670Z,2.25
2022-07-30T15:32:38.589Z,2.90
2022-07-30T15:35:13.565Z,1.77
2022-07-30T15:37:42.520Z,2.38
2022-07-30T15:40:11.489Z,3.03
2022-07-30T15:42:42.650Z,4.28
2022-07-30T15:45:17.663Z,2.10
2022-07-30T15:47:47.111Z,3.08
2022-07-30T15:50:16.806Z,2.00
2022-07-30T15:52:45.362Z,2.05
2022-07-30T15:55:13.930Z,2.30
2022-07-30T15:57:44.382Z,5.22
2022-07-30T16:00:13.746Z,71.25
2022-07-30T16:02:43.882Z,13.40
2022-07-30T16:05:14.252Z,6.70
2022-07-30T16:07:42.939Z,3.90
2022-07-30T16:10:11.602Z,3.00
2022-07-30T16:12:42.037Z,3.65
2022-07-30T16:15:12.249Z,2.13
2022-07-30T16:17:40.544Z,2.83
2022-07-30T16:20:10.882Z,3.92
2022-07-30T16:22:39.324Z,4.28
2022-07-30T16:25:08.934Z,2.35
2022-07-30T16:27:37.954Z,6.57
2022-07-30T16:30:07.156Z,2.33
2022-07-30T16:32:37.059Z,2.00
2022-07-30T16:35:09.281Z,3.40
2022-07-30T16:37:39.816Z,4.40
2022-07-30T16:40:08.985Z,2.42
2022-07-30T16:42:37.457Z,3.72
2022-07-30T16:45:06.365Z,2.88
2022-07-30T16:47:36.383Z,2.80
2022-07-30T16:50:05.241Z,2.72
2022-07-30T16:52:33.530Z,2.97
2022-07-30T16:55:01.902Z,2.65
2022-07-30T16:57:30.280Z,5.20
2022-07-30T16:59:58.774Z,2.25
2022-07-30T17:02:27.062Z,2.75
2022-07-30T17:04:56.696Z,2.10
2022-07-30T17:07:25.144Z,2.90
2022-07-30T17:09:53.972Z,2.42
2022-07-30T17:12:23.298Z,3.75
2022-07-30T17:14:53.947Z,2.90
2022-07-30T17:17:22.488Z,4.20
2022-07-30T17:19:50.916Z,2.03
2022-07-30T17:22:20.724Z,1.83
2022-07-30T17:24:48.985Z,1.40
2022-07-30T17:27:17.310Z,3.05
2022-07-30T17:29:50.198Z,2.15
2022-07-30T17:32:20.001Z,2.15
2022-07-30T17:34:48.865Z,2.75
2022-07-30T17:37:17.514Z,2.83
2022-07-30T17:40:22.979Z,3.28
2022-07-30T17:42:39.747Z,2.17
2022-07-30T17:45:09.097Z,2.75
2022-07-30T17:47:37.640Z,2.08
2022-07-30T17:50:06.884Z,2.45
2022-07-30T17:52:35.598Z,3.78
2022-07-30T17:55:05.842Z,2.85
2022-07-30T17:57:34.142Z,3.00
2022-07-30T18:00:03.742Z,1.75
2022-07-30T18:02:32.842Z,2.58
2022-07-30T18:05:01.849Z,3.70
2022-07-30T18:07:30.308Z,3.42
2022-07-30T18:09:58.863Z,3.15
2022-07-30T18:12:28.522Z,4.65
2022-07-30T18:14:57.439Z,5.88
2022-07-30T18:17:25.814Z,4.95
2022-07-30T18:19:54.878Z,3.42
2022-07-30T18:22:29.868Z,3.70
2022-07-30T18:25:00.837Z,3.53
2022-07-30T18:27:31.250Z,3.70
2022-07-30T18:29:59.662Z,2.20
2022-07-30T18:32:28.078Z,3.45
2022-07-30T18:34:56.445Z,2.95
2022-07-30T18:37:24.775Z,2.58
2022-07-30T18:40:10.871Z,3.38
2022-07-30T18:42:40.846Z,2.83
2022-07-30T18:45:13.907Z,4.78
2022-07-30T18:47:42.848Z,2.65
2022-07-30T18:50:11.869Z,5.97
2022-07-30T18:52:40.548Z,4.30
2022-07-30T18:55:11.392Z,4.97
2022-07-30T18:57:41.821Z,4.20
2022-07-30T19:00:31.107Z,3.42
2022-07-30T19:03:01.767Z,4.65
2022-07-30T19:05:30.276Z,3.33
2022-07-30T19:07:59.149Z,3.30
2022-07-30T19:10:28.134Z,4.00
2022-07-30T19:12:57.811Z,4.10
2022-07-30T19:15:26.380Z,5.85
2022-07-30T19:17:54.694Z,3.88
2022-07-30T19:20:23.645Z,3.42
2022-07-30T19:22:53.344Z,4.90
2022-07-30T19:25:21.840Z,4.00
2022-07-30T19:27:50.183Z,3.22
2022-07-30T19:30:19.937Z,3.35
2022-07-30T19:32:48.164Z,6.00
2022-07-30T19:35:16.531Z,5.30
2022-07-30T19:37:44.843Z,2.92
2022-07-30T19:40:14.234Z,3.70
2022-07-30T19:42:42.926Z,5.82
2022-07-30T19:45:13.335Z,5.88
2022-07-30T19:47:43.489Z,5.15
2022-07-30T19:50:15.459Z,3.63
2022-07-30T19:52:51.308Z,4.40
2022-07-30T19:55:30.974Z,3.45
2022-07-30T19:58:16.436Z,4.38
2022-07-30T20:00:49.587Z,5.43
2022-07-30T20:03:37.001Z,3.70
2022-07-30T20:06:07.326Z,4.45
2022-07-30T20:08:35.894Z,3.88
2022-07-30T20:11:06.020Z,3.17
2022-07-30T20:13:44.879Z,7.82
2022-07-30T20:16:15.174Z,6.20
2022-07-30T20:18:46.232Z,7.43
2022-07-30T20:21:16.190Z,5.40
2022-07-30T20:23:45.545Z,4.30
2022-07-30T20:26:15.963Z,4.63
2022-07-30T20:31:38.897Z,5.75
2022-07-30T20:34:16.261Z,6.05
2022-07-30T20:36:46.489Z,4.22
2022-07-30T20:39:18.359Z,4.40
2022-07-30T20:41:46.959Z,4.00
2022-07-30T20:44:23.568Z,4.53
2022-07-30T20:46:52.608Z,6.00
2022-07-30T20:49:35.312Z,5.68
2022-07-30T20:52:04.871Z,5.28
2022-07-30T20:54:33.972Z,4.97
2022-07-30T20:57:04.009Z,4.28
2022-07-30T20:59:35.673Z,4.35
2022-07-30T21:02:04.724Z,4.82
2022-07-30T21:04:36.382Z,5.93
2022-07-30T21:07:05.061Z,5.25
2022-07-30T21:09:49.917Z,3.78
2022-07-30T21:18:01.494Z,5.38
2022-07-30T21:20:32.636Z,6.78
2022-07-30T21:23:05.751Z,7.30
2022-07-30T21:26:00.736Z,5.88
2022-07-30T21:28:29.294Z,4.85
2022-07-30T21:30:57.753Z,6.90
2022-07-30T21:33:31.012Z,6.43
2022-07-30T21:36:01.281Z,5.18
2022-07-30T21:38:30.608Z,4.57
2022-07-30T21:41:00.294Z,5.10
2022-07-30T21:43:30.618Z,5.20
2022-07-30T21:46:03.610Z,6.13
2022-07-30T21:48:32.337Z,4.70
2022-07-30T21:51:02.214Z,7.10
2022-07-30T21:53:46.242Z,6.93
2022-07-30T21:56:16.361Z,3.78
2022-07-30T21:58:45.621Z,5.75
2022-07-30T22:01:21.826Z,12.55
2022-07-30T22:04:04.502Z,5.85
2022-07-30T22:06:41.259Z,3.90
2022-07-30T22:09:18.248Z,5.22
2022-07-30T22:11:54.824Z,6.00
2022-07-30T22:14:25.590Z,5.35
2022-07-30T22:16:54.633Z,4.18
2022-07-30T22:19:23.050Z,5.63
2022-07-30T22:21:52.954Z,5.85
2022-07-30T22:24:28.643Z,3.75
2022-07-30T22:27:00.973Z,4.47
2022-07-30T22:29:34.106Z,4.47
2022-07-30T22:32:06.236Z,7.57
2022-07-30T22:34:36.488Z,6.90
2022-07-30T22:37:09.272Z,5.95
2022-07-30T22:39:51.021Z,6.10
2022-07-30T22:42:24.386Z,6.90
2022-07-30T22:44:54.870Z,5.18
2022-07-30T22:47:50.826Z,5.40
2022-07-30T22:50:14.771Z,5.80
2022-07-30T22:53:23.391Z,6.70
2022-07-30T22:55:51.514Z,6.30
2022-07-30T23:01:11.759Z,7.90
2022-07-30T23:03:40.070Z,6.07
2022-07-30T23:06:14.860Z,8.75
2022-07-30T23:08:46.068Z,8.32
2022-07-30T23:11:14.348Z,8.48
2022-07-30T23:12:18.035Z,3.92
2022-07-30T23:12:31.101Z,6.15
2022-07-30T23:12:32.789Z,4.63
2022-07-30T23:12:34.383Z,7.07
2022-07-30T23:13:43.338Z,6.60
2022-07-30T23:16:11.783Z,6.57
2022-07-30T23:18:40.084Z,9.48
2022-07-30T23:21:08.376Z,9.30
2022-07-30T23:23:36.707Z,10.57
2022-07-30T23:26:08.454Z,8.68
2022-07-30T23:28:37.785Z,7.13
2022-07-30T23:31:06.351Z,6.65
2022-07-30T23:33:34.817Z,7.68
2022-07-30T23:36:06.206Z,5.88
2022-07-30T23:38:34.949Z,7.65
2022-07-30T23:41:04.212Z,8.05
2022-07-30T23:43:34.168Z,6.57
2022-07-30T23:46:02.862Z,5.72
2022-07-30T23:48:32.251Z,6.55
2022-07-30T23:51:00.617Z,5.57
2022-07-30T23:53:28.953Z,5.65
2022-07-30T23:55:57.608Z,5.90
2022-07-30T23:58:25.922Z,6.93
